Accueil
METAR-TAF:

METAR-TAF

Aéroports :

Columbia, Caroline du Sud, États-Unis

latitude: 33-58-15N, longitude: 080-59-40W, altitude: 64 m

Observation

Le bulletin a été fait il y a 46 minutes, à 21:53 UTC
Vent calme
Température 17°C
Humidité 42%
Pression 1022 hPa
Visibilité: 16.1 km
Ciel clair

METAR: KCUB 202153Z AUTO 00000KT 10SM CLR 17/04 A3017 RMK AO2 SLP215 T01670039

Heure: 17:39 (22:39 UTC)

Prévision

Le bulletin a été fait il y a 1 heure et 56 minutes, à 20:43 UTC
Prévision valable du 20 à 21 UTC au 21 à 18 UTC
Vent 5 kt de nord
Visibilité: 10 km
Ciel clair
A partir de 20 à 2300 UTC
Vent kt de nord
Visibilité: 10 km
Ciel clair
A partir de 21 à 1400 UTC
Vent 5 kt de est/sud-est
Visibilité: 10 km
Nuages épars à une hauteur de 25000 ft

TAF: KCUB 202043Z 2021/2118 01005KT P6SM SKC FM202300 00000KT P6SM SKC FM211400 12005KT P6SM SCT250

Observations et prévisions météorologiques de plus de 4000 aéroports (messages METAR et TAF).

Les stations disponibles sont représentées par des disques jaunes et rouges sur la carte.

Passer la souris dessus pour voir le nom de la station.

Cliquer dessus pour voir les observations et prévisions météorologiques.

Pour changer de carte: cliquez sur les boutons verts avec une croix noire pour zoomer, sur le bouton vert avec un tiret pour effectuer un zoom arrière, ou sur les flèches vertes pour les cartes adjacentes.


METAR-TAF: